Time;durP1;ratioP1;P1;durP2;ratioP2;P2;SDS_P1;SDS_P2;PMS_P1;PMS_P2;Temp;Humidity;BMP_temperature;BMP_pressure;BME280_temperature;BME280_humidity;BME280_pressure;Samples;Min_cycle;Max_cycle;Signal;HPM_P1;HPM_P2
2023/12/03 00:02:21;;;;;;;7.53;5.78;;;19.90;30.20;;;;;;5035622;28;20045;-57
2023/12/03 00:04:48;;;;;;;7.40;5.57;;;19.90;30.20;;;;;;5034046;28;20444;-58
2023/12/03 00:07:14;;;;;;;7.88;6.10;;;19.90;30.30;;;;;;5033984;28;20052;-57
2023/12/03 00:09:40;;;;;;;8.35;6.25;;;19.90;30.30;;;;;;5035295;28;20488;-57
2023/12/03 00:12:07;;;;;;;8.15;5.80;;;19.90;30.30;;;;;;5032957;28;20341;-58
2023/12/03 00:14:34;;;;;;;7.38;5.88;;;19.90;30.30;;;;;;5035811;28;20036;-54
2023/12/03 00:17:00;;;;;;;8.63;6.63;;;19.90;30.30;;;;;;4999529;28;20372;-56
2023/12/03 00:19:26;;;;;;;7.70;6.15;;;19.90;30.40;;;;;;5000279;28;20044;-61
2023/12/03 00:21:52;;;;;;;8.98;6.47;;;19.80;30.30;;;;;;5035957;28;20037;-57
2023/12/03 00:24:18;;;;;;;8.98;6.50;;;19.90;30.40;;;;;;5017376;28;20029;-56
2023/12/03 00:26:44;;;;;;;8.38;6.00;;;19.80;30.30;;;;;;5035214;28;20433;-59
2023/12/03 00:29:10;;;;;;;8.05;6.43;;;19.80;30.40;;;;;;5035092;28;20113;-61
2023/12/03 00:31:36;;;;;;;8.90;6.65;;;19.80;30.40;;;;;;5032748;28;20441;-58
2023/12/03 00:34:03;;;;;;;8.93;6.72;;;19.80;30.40;;;;;;5034937;28;20356;-57
2023/12/03 00:36:29;;;;;;;8.30;6.20;;;19.80;30.40;;;;;;5035141;28;20026;-55
2023/12/03 00:38:55;;;;;;;8.75;6.22;;;19.80;30.40;;;;;;5017758;28;20356;-55
2023/12/03 00:41:22;;;;;;;9.02;6.70;;;19.80;30.40;;;;;;5035715;28;20115;-55
2023/12/03 00:43:48;;;;;;;9.02;6.53;;;19.80;30.50;;;;;;5045667;28;20092;-58
2023/12/03 00:46:20;;;;;;;10.07;7.07;;;19.80;30.50;;;;;;5042899;28;20324;-55
2023/12/03 00:48:46;;;;;;;10.50;6.97;;;19.70;30.50;;;;;;5039636;28;20440;-56
2023/12/03 00:51:13;;;;;;;9.27;7.32;;;19.70;30.50;;;;;;5024710;28;20026;-57
2023/12/03 00:53:41;;;;;;;8.93;7.10;;;19.70;30.50;;;;;;5045609;28;20028;-57
2023/12/03 00:56:07;;;;;;;10.00;7.28;;;19.70;30.50;;;;;;5008409;28;20041;-55
2023/12/03 00:58:33;;;;;;;10.82;7.20;;;19.70;30.50;;;;;;5044220;28;20140;-57
2023/12/03 01:00:59;;;;;;;9.95;6.97;;;19.70;30.60;;;;;;5048148;28;20049;-58
2023/12/03 01:03:25;;;;;;;11.15;7.63;;;19.60;30.50;;;;;;5048189;28;20043;-58
2023/12/03 01:05:50;;;;;;;9.68;6.78;;;19.70;30.60;;;;;;5026470;28;20021;-52
2023/12/03 01:08:16;;;;;;;11.45;7.78;;;19.70;30.60;;;;;;5035650;28;20033;-54
2023/12/03 01:10:42;;;;;;;11.63;7.97;;;19.70;30.60;;;;;;5042191;28;20024;-56
2023/12/03 01:13:08;;;;;;;10.50;7.50;;;19.70;30.60;;;;;;5044272;28;20340;-51
2023/12/03 01:15:34;;;;;;;10.48;7.38;;;19.60;30.60;;;;;;5024289;28;20033;-51
2023/12/03 01:18:00;;;;;;;11.02;7.70;;;19.60;30.70;;;;;;5035497;28;20025;-58
2023/12/03 01:20:26;;;;;;;13.30;8.85;;;19.60;30.70;;;;;;5044234;28;20032;-57
2023/12/03 01:22:52;;;;;;;11.30;8.02;;;19.60;30.70;;;;;;5029539;28;20087;-61
2023/12/03 01:25:18;;;;;;;12.23;7.82;;;19.60;30.70;;;;;;5041326;28;20083;-58
2023/12/03 01:27:44;;;;;;;11.27;8.35;;;19.60;30.80;;;;;;5043409;28;20041;-56
2023/12/03 01:30:10;;;;;;;12.00;7.50;;;19.60;30.80;;;;;;5042459;28;20091;-57
2023/12/03 01:32:36;;;;;;;10.52;7.38;;;19.60;30.80;;;;;;5029353;28;20389;-55
2023/12/03 01:35:02;;;;;;;11.80;7.82;;;19.50;30.70;;;;;;5041813;28;20107;-62
2023/12/03 01:37:27;;;;;;;11.00;7.60;;;19.50;30.80;;;;;;5041618;28;20083;-55
2023/12/03 01:39:53;;;;;;;11.70;8.13;;;19.50;30.80;;;;;;5041127;28;20456;-60
2023/12/03 01:42:20;;;;;;;10.13;7.25;;;19.50;30.80;;;;;;5036554;28;20440;-54
2023/12/03 01:44:46;;;;;;;9.40;6.80;;;19.50;30.80;;;;;;5033847;28;20029;-56
2023/12/03 01:47:13;;;;;;;11.48;7.35;;;19.50;30.90;;;;;;5033748;28;20436;-55
2023/12/03 01:49:40;;;;;;;10.68;7.10;;;19.50;30.90;;;;;;5032632;28;20166;-61
2023/12/03 01:52:06;;;;;;;10.77;7.28;;;19.50;30.90;;;;;;5033578;28;20064;-57
2023/12/03 01:54:36;;;;;;;10.10;7.07;;;19.50;30.90;;;;;;5016094;28;20032;-58
2023/12/03 01:57:02;;;;;;;10.98;7.47;;;19.50;31.00;;;;;;5031171;28;20026;-54
2023/12/03 01:59:30;;;;;;;11.00;7.35;;;19.50;31.00;;;;;;5033749;28;20040;-57
2023/12/03 02:01:56;;;;;;;10.25;7.22;;;19.50;31.00;;;;;;5033380;28;20025;-57
2023/12/03 02:04:22;;;;;;;10.52;7.47;;;19.50;31.10;;;;;;5033728;28;20118;-55
2023/12/03 02:06:49;;;;;;;10.88;6.85;;;19.40;31.00;;;;;;5015424;28;20700;-55
2023/12/03 02:09:16;;;;;;;10.27;7.15;;;19.50;31.10;;;;;;5032796;28;20045;-59
2023/12/03 02:11:45;;;;;;;10.18;7.38;;;19.50;31.20;;;;;;5033442;28;20033;-57
2023/12/03 02:14:12;;;;;;;10.10;7.00;;;19.40;31.10;;;;;;5031967;28;20091;-59
2023/12/03 02:16:43;;;;;;;10.10;7.05;;;19.40;31.20;;;;;;5032895;28;20492;-58
2023/12/03 02:19:09;;;;;;;9.18;6.80;;;19.40;31.20;;;;;;5032521;28;20053;-53
2023/12/03 02:21:35;;;;;;;9.73;7.07;;;19.40;31.20;;;;;;5033386;28;20507;-55
2023/12/03 02:24:00;;;;;;;10.65;7.40;;;19.40;31.30;;;;;;5033781;28;20514;-55
2023/12/03 02:26:26;;;;;;;10.40;7.15;;;19.40;31.30;;;;;;5033242;28;20032;-60
2023/12/03 02:28:52;;;;;;;9.95;6.78;;;19.40;31.30;;;;;;5035878;28;20041;-58
2023/12/03 02:31:18;;;;;;;9.45;7.50;;;19.40;31.30;;;;;;5037918;28;20029;-58
2023/12/03 02:33:55;;;;;;;10.35;7.45;;;19.40;31.30;;;;;;5037032;28;20116;-56
2023/12/03 02:36:20;;;;;;;11.23;7.65;;;19.40;31.30;;;;;;5025719;28;20472;-55
2023/12/03 02:38:46;;;;;;;11.70;7.82;;;19.40;31.30;;;;;;5036794;28;20017;-58
2023/12/03 02:41:12;;;;;;;10.95;7.30;;;19.40;31.40;;;;;;5042047;28;20072;-57
2023/12/03 02:43:38;;;;;;;10.27;7.40;;;19.40;31.40;;;;;;5046486;28;20056;-59
2023/12/03 02:46:04;;;;;;;11.70;7.82;;;19.40;31.50;;;;;;5041629;28;20083;-56
2023/12/03 02:48:30;;;;;;;12.73;8.23;;;19.30;31.40;;;;;;5046102;28;20496;-61
2023/12/03 02:50:56;;;;;;;11.23;7.75;;;19.30;31.50;;;;;;5031089;28;20124;-59
2023/12/03 02:53:22;;;;;;;10.88;7.10;;;19.30;31.50;;;;;;5025772;28;20108;-52
2023/12/03 02:55:48;;;;;;;10.52;7.15;;;19.30;31.50;;;;;;5046654;28;20063;-60
2023/12/03 02:58:13;;;;;;;11.30;8.18;;;19.30;31.50;;;;;;5028862;28;20508;-60
2023/12/03 03:00:39;;;;;;;11.27;7.68;;;19.30;31.60;;;;;;5050310;28;20104;-59
2023/12/03 03:03:05;;;;;;;9.88;7.40;;;19.30;31.60;;;;;;5030544;28;20337;-58
2023/12/03 03:05:31;;;;;;;10.73;7.70;;;19.30;31.60;;;;;;5043453;28;20070;-60
2023/12/03 03:07:57;;;;;;;10.10;7.40;;;19.30;31.70;;;;;;5038658;28;20434;-58
2023/12/03 03:10:23;;;;;;;11.27;7.90;;;19.30;31.70;;;;;;5048673;28;20475;-60
2023/12/03 03:12:49;;;;;;;10.15;7.78;;;19.30;31.70;;;;;;5043702;28;20506;-60
2023/12/03 03:15:14;;;;;;;11.50;7.85;;;19.30;31.80;;;;;;5045533;28;20452;-60
2023/12/03 03:17:40;;;;;;;11.60;8.05;;;19.30;31.80;;;;;;5042533;28;20417;-59
2023/12/03 03:20:07;;;;;;;10.23;7.07;;;19.20;31.70;;;;;;5026040;28;20021;-58
2023/12/03 03:22:33;;;;;;;11.82;7.63;;;19.20;31.80;;;;;;5045700;28;20029;-56
2023/12/03 03:24:59;;;;;;;10.63;7.25;;;19.30;31.90;;;;;;5049000;28;20482;-58
2023/12/03 03:27:25;;;;;;;10.18;7.50;;;19.30;31.90;;;;;;5042895;28;20079;-59
2023/12/03 03:29:51;;;;;;;10.60;7.40;;;19.20;31.90;;;;;;5046593;28;20025;-56
2023/12/03 03:32:17;;;;;;;10.32;7.32;;;19.20;31.80;;;;;;5028056;28;20037;-59
2023/12/03 03:34:43;;;;;;;10.45;7.30;;;19.20;31.90;;;;;;5044744;28;20043;-59
2023/12/03 03:37:08;;;;;;;10.10;7.28;;;19.20;31.90;;;;;;5030567;28;20440;-58
2023/12/03 03:39:34;;;;;;;10.38;7.38;;;19.20;31.90;;;;;;5040690;28;20476;-56
2023/12/03 03:42:00;;;;;;;11.05;7.57;;;19.20;31.90;;;;;;5045542;28;20459;-60
2023/12/03 03:44:26;;;;;;;9.05;6.78;;;19.20;32.00;;;;;;5047293;28;20044;-57
2023/12/03 03:46:53;;;;;;;8.85;6.97;;;19.20;32.00;;;;;;5025217;28;20366;-58
2023/12/03 03:49:19;;;;;;;9.18;6.68;;;19.20;32.00;;;;;;5043122;28;20035;-58
2023/12/03 03:51:45;;;;;;;7.90;6.50;;;19.20;32.00;;;;;;5045559;28;20034;-58
2023/12/03 03:54:10;;;;;;;8.07;6.70;;;19.10;32.00;;;;;;5010526;28;20174;-58
2023/12/03 03:56:36;;;;;;;9.20;6.80;;;19.10;32.00;;;;;;5043749;28;20021;-56
2023/12/03 03:59:02;;;;;;;8.27;5.85;;;19.10;32.00;;;;;;5008642;28;20029;-55
2023/12/03 04:01:28;;;;;;;8.13;6.72;;;19.20;32.10;;;;;;5026144;28;20032;-60
2023/12/03 04:03:54;;;;;;;8.50;6.45;;;19.10;32.00;;;;;;5045695;28;20506;-58
2023/12/03 04:06:20;;;;;;;7.80;6.10;;;19.10;32.00;;;;;;5045738;28;20037;-58
2023/12/03 04:08:45;;;;;;;8.65;7.32;;;19.20;32.10;;;;;;5035757;28;20425;-58
2023/12/03 04:11:12;;;;;;;8.27;6.15;;;19.10;32.00;;;;;;5009171;28;20033;-57
2023/12/03 04:13:38;;;;;;;8.15;6.55;;;19.10;32.10;;;;;;5027913;28;20402;-59
2023/12/03 04:16:04;;;;;;;7.55;5.85;;;19.10;32.00;;;;;;5045075;28;20061;-58
2023/12/03 04:18:30;;;;;;;7.50;5.93;;;19.10;32.10;;;;;;5036908;28;20025;-62
2023/12/03 04:20:56;;;;;;;6.90;5.93;;;19.10;32.10;;;;;;5041842;28;20044;-58
2023/12/03 04:23:22;;;;;;;7.53;5.82;;;19.10;32.10;;;;;;5046916;28;20025;-60
2023/12/03 04:25:48;;;;;;;7.88;5.97;;;19.10;32.10;;;;;;5013350;28;20044;-59
2023/12/03 04:28:14;;;;;;;6.63;5.45;;;19.10;32.10;;;;;;5043669;28;20040;-58
2023/12/03 04:30:39;;;;;;;7.38;5.85;;;19.10;32.10;;;;;;5029907;28;20376;-58
2023/12/03 04:33:05;;;;;;;5.78;5.18;;;19.10;32.10;;;;;;5029331;28;20103;-56
2023/12/03 04:35:31;;;;;;;7.53;5.75;;;19.00;32.00;;;;;;5047005;28;20021;-59
2023/12/03 04:37:57;;;;;;;6.80;5.50;;;19.10;32.10;;;;;;5044360;28;20033;-55
2023/12/03 04:40:23;;;;;;;7.32;5.43;;;19.10;32.10;;;;;;5040620;28;20086;-61
2023/12/03 04:42:49;;;;;;;5.88;5.05;;;19.00;32.00;;;;;;5035037;28;20475;-57
2023/12/03 04:45:14;;;;;;;6.53;5.05;;;19.10;32.10;;;;;;5035284;28;20052;-59
2023/12/03 04:47:40;;;;;;;7.00;4.75;;;19.10;32.10;;;;;;5016215;28;20049;-58
2023/12/03 04:50:06;;;;;;;6.30;4.82;;;19.00;32.00;;;;;;5017388;28;20072;-59
2023/12/03 04:52:32;;;;;;;6.22;5.25;;;19.00;32.00;;;;;;5034995;28;20034;-55
2023/12/03 04:54:58;;;;;;;6.60;5.35;;;19.00;32.00;;;;;;5035092;28;20042;-60
2023/12/03 04:57:24;;;;;;;6.72;5.63;;;19.00;32.10;;;;;;5034211;28;20065;-56
2023/12/03 04:59:50;;;;;;;6.57;5.10;;;19.00;32.10;;;;;;5032045;28;20104;-57
2023/12/03 05:02:16;;;;;;;5.40;4.60;;;19.00;32.10;;;;;;5017375;28;20026;-56
2023/12/03 05:04:41;;;;;;;7.32;5.63;;;19.00;32.10;;;;;;5017093;28;20369;-54
2023/12/03 05:07:07;;;;;;;7.07;5.00;;;19.00;32.10;;;;;;5032707;28;20049;-58
2023/12/03 05:09:33;;;;;;;5.93;5.00;;;19.00;32.00;;;;;;5034479;28;20363;-57
2023/12/03 05:11:59;;;;;;;6.22;4.70;;;19.00;32.00;;;;;;5033701;28;20031;-57
2023/12/03 05:14:25;;;;;;;6.13;4.88;;;19.00;32.00;;;;;;5016539;28;20452;-57
2023/12/03 05:16:51;;;;;;;6.10;4.18;;;19.00;32.00;;;;;;5033028;28;20029;-56
2023/12/03 05:19:16;;;;;;;5.20;4.32;;;19.00;32.00;;;;;;5033437;28;20460;-56
2023/12/03 05:21:42;;;;;;;5.45;4.63;;;19.00;32.00;;;;;;5033786;28;20033;-58
2023/12/03 05:24:08;;;;;;;5.68;4.45;;;19.00;32.00;;;;;;5033630;28;20112;-59
2023/12/03 05:26:34;;;;;;;6.07;4.47;;;18.90;32.00;;;;;;5033395;28;20163;-60
2023/12/03 05:29:00;;;;;;;5.57;4.28;;;18.90;31.90;;;;;;5033161;28;20041;-55
2023/12/03 05:31:26;;;;;;;6.15;4.57;;;18.90;31.90;;;;;;5013801;28;20025;-56
2023/12/03 05:33:52;;;;;;;5.63;4.22;;;18.90;31.90;;;;;;5015753;28;20481;-59
2023/12/03 05:36:22;;;;;;;5.57;4.32;;;18.90;31.90;;;;;;5033438;28;20025;-60
2023/12/03 05:38:51;;;;;;;5.50;4.07;;;18.90;31.90;;;;;;5031468;28;20033;-55
2023/12/03 05:41:17;;;;;;;5.20;4.18;;;18.90;31.90;;;;;;5020940;28;20048;-61
2023/12/03 05:43:43;;;;;;;5.40;4.57;;;18.90;31.90;;;;;;5053326;28;20029;-55
2023/12/03 05:46:08;;;;;;;6.00;4.60;;;18.90;31.90;;;;;;5053139;28;20143;-60
2023/12/03 05:48:34;;;;;;;5.45;4.28;;;18.90;31.80;;;;;;5052742;28;20120;-55
2023/12/03 05:51:00;;;;;;;6.13;4.57;;;18.90;31.90;;;;;;5053450;28;20056;-53
2023/12/03 05:53:26;;;;;;;6.45;4.70;;;18.90;31.80;;;;;;5053262;28;20025;-58
2023/12/03 05:55:52;;;;;;;6.13;4.55;;;18.90;31.80;;;;;;5052707;28;20044;-64
2023/12/03 05:58:17;;;;;;;6.32;4.93;;;18.90;31.80;;;;;;5052884;28;20032;-58
2023/12/03 06:00:43;;;;;;;6.50;4.63;;;18.90;31.80;;;;;;5052856;28;20117;-58
2023/12/03 06:03:09;;;;;;;6.82;5.10;;;18.90;31.80;;;;;;5052486;28;20036;-59
2023/12/03 06:05:35;;;;;;;5.82;4.47;;;18.90;31.80;;;;;;5052461;28;20016;-54
2023/12/03 06:08:00;;;;;;;6.63;4.50;;;18.90;31.80;;;;;;5051299;28;20040;-58
2023/12/03 06:10:26;;;;;;;6.20;4.82;;;18.90;31.70;;;;;;5035325;28;20059;-60
2023/12/03 06:12:52;;;;;;;5.55;4.47;;;18.80;31.70;;;;;;5052699;28;20029;-57
2023/12/03 06:15:18;;;;;;;6.53;4.32;;;18.90;31.80;;;;;;5052765;28;20035;-58
2023/12/03 06:17:44;;;;;;;6.30;4.50;;;18.90;31.70;;;;;;5051711;28;20317;-60
2023/12/03 06:20:10;;;;;;;5.82;4.35;;;18.90;31.70;;;;;;5053302;28;20030;-58
2023/12/03 06:22:36;;;;;;;5.95;4.70;;;18.90;31.70;;;;;;5053092;28;20025;-55
2023/12/03 06:25:02;;;;;;;5.43;4.35;;;18.80;31.70;;;;;;5035124;28;20037;-59
2023/12/03 06:27:28;;;;;;;5.13;4.30;;;18.80;31.70;;;;;;5052185;28;20107;-56
2023/12/03 06:29:54;;;;;;;6.78;4.85;;;18.80;31.70;;;;;;5052840;28;20079;-58
2023/12/03 06:32:20;;;;;;;5.85;4.57;;;18.80;31.70;;;;;;5052492;28;20029;-60
2023/12/03 06:34:46;;;;;;;5.60;4.18;;;18.80;31.60;;;;;;5052543;28;20096;-60
2023/12/03 06:37:12;;;;;;;6.28;4.90;;;18.80;31.60;;;;;;5033909;28;20033;-55
2023/12/03 06:39:38;;;;;;;6.50;5.05;;;18.80;31.60;;;;;;5052595;28;20021;-59
2023/12/03 06:42:04;;;;;;;5.80;4.40;;;18.80;31.70;;;;;;5039992;28;20079;-58
2023/12/03 06:44:30;;;;;;;5.95;4.60;;;18.80;31.60;;;;;;5032982;28;20111;-57
2023/12/03 06:46:55;;;;;;;6.78;4.82;;;18.80;31.60;;;;;;5032289;28;20056;-57
2023/12/03 06:49:21;;;;;;;5.53;4.45;;;18.80;31.60;;;;;;5014809;28;20029;-58
2023/12/03 06:51:47;;;;;;;5.85;4.53;;;18.80;31.60;;;;;;5033120;28;20025;-54
2023/12/03 06:54:13;;;;;;;6.97;5.00;;;18.80;31.60;;;;;;5015252;28;20124;-57
2023/12/03 06:56:39;;;;;;;5.50;4.32;;;18.80;31.60;;;;;;5032334;28;20033;-56
2023/12/03 06:59:05;;;;;;;6.00;4.60;;;18.80;31.50;;;;;;5032353;28;20041;-59
2023/12/03 07:01:30;;;;;;;6.15;4.60;;;18.80;31.50;;;;;;5032451;28;20022;-58
2023/12/03 07:03:56;;;;;;;8.43;4.97;;;18.80;31.60;;;;;;5031938;28;20512;-60
2023/12/03 07:06:22;;;;;;;6.85;4.65;;;18.80;31.50;;;;;;4990267;28;20566;-59
2023/12/03 07:08:48;;;;;;;7.00;4.75;;;18.80;31.50;;;;;;4989808;28;20389;-59
2023/12/03 07:11:14;;;;;;;5.65;4.55;;;18.80;31.50;;;;;;4989066;28;20065;-58
2023/12/03 07:13:40;;;;;;;6.95;4.75;;;18.80;31.50;;;;;;4990173;28;20026;-58
2023/12/03 07:16:09;;;;;;;6.38;4.32;;;18.80;31.60;;;;;;4992446;28;20061;-57
2023/12/03 07:18:35;;;;;;;5.78;4.45;;;18.80;31.60;;;;;;4992527;28;20069;-61
2023/12/03 07:21:00;;;;;;;6.20;4.78;;;18.80;31.60;;;;;;4993893;28;20030;-55
2023/12/03 07:23:26;;;;;;;6.07;4.78;;;18.80;31.50;;;;;;4994164;28;20034;-59
2023/12/03 07:25:52;;;;;;;6.10;4.50;;;18.80;31.50;;;;;;4978020;28;20101;-53
2023/12/03 07:28:18;;;;;;;6.50;4.65;;;18.80;31.50;;;;;;4992664;28;20053;-58
2023/12/03 07:30:44;;;;;;;5.75;4.55;;;18.80;31.50;;;;;;4993380;28;20045;-58
2023/12/03 07:33:10;;;;;;;6.25;4.70;;;18.80;31.50;;;;;;4993517;28;20070;-55
2023/12/03 07:35:37;;;;;;;5.00;4.20;;;18.80;31.50;;;;;;4993677;28;20073;-59
2023/12/03 07:38:02;;;;;;;6.22;4.90;;;18.80;31.40;;;;;;5026113;28;20079;-61
2023/12/03 07:40:28;;;;;;;7.88;4.93;;;18.80;31.40;;;;;;5016806;28;20445;-60
2023/12/03 07:42:54;;;;;;;7.22;4.78;;;18.80;31.40;;;;;;5020049;28;20053;-59
2023/12/03 07:45:20;;;;;;;6.22;4.78;;;18.80;31.40;;;;;;5055550;28;20025;-60
2023/12/03 07:47:46;;;;;;;5.95;4.60;;;18.80;31.40;;;;;;5054647;28;20104;-59
2023/12/03 07:50:12;;;;;;;6.28;4.32;;;18.80;31.40;;;;;;5054532;28;20075;-60
2023/12/03 07:52:38;;;;;;;5.57;4.28;;;18.80;31.40;;;;;;5037183;28;20024;-58
2023/12/03 07:55:05;;;;;;;6.20;4.88;;;18.80;31.40;;;;;;5055121;28;20440;-58
2023/12/03 07:57:30;;;;;;;6.57;4.60;;;18.80;31.40;;;;;;5055100;28;20025;-57
2023/12/03 07:59:58;;;;;;;6.43;4.85;;;18.80;31.40;;;;;;5053824;28;20025;-56
2023/12/03 08:02:23;;;;;;;5.93;4.53;;;18.80;31.40;;;;;;5036304;28;20440;-56
2023/12/03 08:04:49;;;;;;;7.13;5.00;;;18.80;31.30;;;;;;5053549;28;20036;-57
2023/12/03 08:07:16;;;;;;;6.05;4.65;;;18.70;31.30;;;;;;5053946;28;20178;-60
2023/12/03 08:09:42;;;;;;;7.03;5.10;;;18.80;31.30;;;;;;5036231;28;20110;-53
2023/12/03 08:12:08;;;;;;;6.78;4.93;;;18.70;31.30;;;;;;5054416;28;20076;-56
2023/12/03 08:14:34;;;;;;;6.95;4.70;;;18.70;31.30;;;;;;5055069;28;20097;-55
2023/12/03 08:17:00;;;;;;;6.55;4.63;;;18.70;31.40;;;;;;5053729;28;20032;-56
2023/12/03 08:19:25;;;;;;;5.55;4.47;;;18.70;31.40;;;;;;5053907;28;20029;-60
2023/12/03 08:21:51;;;;;;;5.82;4.47;;;18.70;31.40;;;;;;5054372;28;20024;-57
2023/12/03 08:24:17;;;;;;;6.53;5.15;;;18.70;31.40;;;;;;5054103;28;20025;-57
2023/12/03 08:26:45;;;;;;;6.05;4.22;;;18.70;31.40;;;;;;5052526;28;20048;-61
2023/12/03 08:29:12;;;;;;;5.97;4.55;;;18.80;31.40;;;;;;5035812;28;20562;-58
2023/12/03 08:31:38;;;;;;;6.97;4.72;;;18.80;31.40;;;;;;5053872;28;20343;-60
2023/12/03 08:34:04;;;;;;;6.55;4.55;;;18.80;31.40;;;;;;5054004;28;20025;-59
2023/12/03 08:36:31;;;;;;;6.47;4.72;;;18.90;31.40;;;;;;5054565;28;20098;-55
2023/12/03 08:38:57;;;;;;;6.25;4.32;;;18.90;31.40;;;;;;5054231;28;20029;-55
2023/12/03 08:41:22;;;;;;;6.07;4.18;;;19.00;31.30;;;;;;5046914;28;20095;-60
2023/12/03 08:43:48;;;;;;;6.18;4.13;;;19.00;31.30;;;;;;5033765;28;20083;-58
2023/12/03 08:46:14;;;;;;;6.63;4.07;;;19.10;31.30;;;;;;5034490;28;20387;-55
2023/12/03 08:48:40;;;;;;;6.00;4.35;;;19.10;31.20;;;;;;5033392;28;20080;-58
2023/12/03 08:51:06;;;;;;;5.85;4.20;;;19.20;31.20;;;;;;5033655;28;20131;-60
2023/12/03 08:53:33;;;;;;;5.38;4.13;;;19.30;31.30;;;;;;5017278;28;20110;-61
2023/12/03 08:56:00;;;;;;;5.32;3.85;;;19.30;31.30;;;;;;5034918;28;20022;-59
2023/12/03 08:58:26;;;;;;;5.55;3.90;;;19.40;31.20;;;;;;5016395;28;20364;-60
2023/12/03 09:00:52;;;;;;;6.78;4.47;;;19.50;31.20;;;;;;4999407;28;20534;-59
2023/12/03 09:03:18;;;;;;;6.50;4.35;;;19.50;31.10;;;;;;5033370;28;20026;-58
2023/12/03 09:05:44;;;;;;;6.30;4.75;;;19.60;31.10;;;;;;5033487;28;20033;-58
2023/12/03 09:08:10;;;;;;;6.18;4.43;;;19.70;31.10;;;;;;5014491;28;20057;-57
2023/12/03 09:10:36;;;;;;;5.45;4.32;;;19.80;31.00;;;;;;5033560;28;20027;-59
2023/12/03 09:13:02;;;;;;;6.05;4.55;;;19.80;30.90;;;;;;5032970;28;20088;-59
2023/12/03 09:15:28;;;;;;;5.25;3.83;;;19.90;30.90;;;;;;5015829;28;20113;-60
2023/12/03 09:17:54;;;;;;;5.22;3.95;;;19.90;30.80;;;;;;5032420;28;20038;-62
2023/12/03 09:20:19;;;;;;;5.40;4.50;;;20.00;30.80;;;;;;5030225;28;20022;-60
2023/12/03 09:22:45;;;;;;;5.07;3.60;;;20.10;30.70;;;;;;5016886;28;20407;-56
2023/12/03 09:25:11;;;;;;;5.55;3.83;;;20.10;30.60;;;;;;5016087;28;20112;-56
2023/12/03 09:27:37;;;;;;;5.22;4.00;;;20.10;30.50;;;;;;5016068;28;20116;-57
2023/12/03 09:30:04;;;;;;;5.55;3.63;;;20.20;30.50;;;;;;5033416;28;20029;-51
2023/12/03 09:32:30;;;;;;;5.72;3.35;;;20.30;30.50;;;;;;5033730;28;20026;-65
2023/12/03 09:34:56;;;;;;;4.53;2.28;;;20.30;30.50;;;;;;5033792;28;20447;-63
2023/12/03 09:37:22;;;;;;;2.13;1.80;;;20.30;30.40;;;;;;5033051;28;20025;-60
2023/12/03 09:39:48;;;;;;;2.60;1.73;;;20.30;30.40;;;;;;5033153;28;20026;-64
2023/12/03 09:42:20;;;;;;;3.20;2.20;;;20.30;30.40;;;;;;5031827;28;20044;-63
2023/12/03 09:45:04;;;;;;;1.67;1.48;;;20.20;30.40;;;;;;5014558;28;20061;-60
2023/12/03 09:47:35;;;;;;;2.95;2.08;;;20.20;30.40;;;;;;5032223;28;20049;-60
2023/12/03 09:50:02;;;;;;;3.30;2.33;;;20.20;30.40;;;;;;5014054;28;20033;-60
2023/12/03 09:52:30;;;;;;;3.60;2.28;;;20.20;30.40;;;;;;5015020;28;20406;-62
2023/12/03 09:55:00;;;;;;;3.63;2.67;;;20.20;30.30;;;;;;5014517;28;20120;-58
2023/12/03 09:57:30;;;;;;;5.22;3.05;;;20.20;30.20;;;;;;4999488;28;20100;-61
2023/12/03 10:00:07;;;;;;;3.75;2.72;;;20.20;30.10;;;;;;5032865;28;20112;-57
2023/12/03 10:02:37;;;;;;;4.05;2.85;;;20.30;30.10;;;;;;5032461;28;20472;-58
2023/12/03 10:05:03;;;;;;;4.05;3.10;;;20.30;30.00;;;;;;5032451;28;20024;-59
2023/12/03 10:07:29;;;;;;;4.53;3.20;;;20.30;30.00;;;;;;5032062;28;20029;-60
2023/12/03 10:10:00;;;;;;;6.25;3.15;;;20.30;29.90;;;;;;5015207;28;20364;-59
2023/12/03 10:12:32;;;;;;;4.63;2.60;;;20.40;29.90;;;;;;5031992;28;20029;-60
2023/12/03 10:14:58;;;;;;;4.70;3.72;;;20.40;29.80;;;;;;5015255;28;20033;-58
2023/12/03 10:17:25;;;;;;;4.90;3.50;;;20.40;29.70;;;;;;5031675;28;20112;-63
2023/12/03 10:19:51;;;;;;;4.40;3.35;;;20.40;29.70;;;;;;5029565;28;20488;-60
2023/12/03 10:22:17;;;;;;;3.13;2.50;;;20.40;29.60;;;;;;5032087;28;20089;-64
2023/12/03 10:24:49;;;;;;;4.30;2.58;;;20.40;29.70;;;;;;5031896;28;20112;-63
2023/12/03 10:27:15;;;;;;;3.10;1.95;;;20.30;29.80;;;;;;5030070;28;20029;-61
2023/12/03 10:29:43;;;;;;;3.47;2.50;;;20.20;29.90;;;;;;5032896;28;20025;-60
2023/12/03 10:32:09;;;;;;;3.72;2.63;;;20.10;29.90;;;;;;5033123;28;20051;-58
2023/12/03 10:34:42;;;;;;;3.70;3.05;;;20.10;30.00;;;;;;5033287;28;20064;-55
2023/12/03 10:37:13;;;;;;;3.95;2.85;;;20.10;30.00;;;;;;5015800;28;20065;-65
2023/12/03 10:39:44;;;;;;;4.93;2.70;;;20.10;30.10;;;;;;5033335;28;20083;-62
2023/12/03 10:42:10;;;;;;;7.20;5.07;;;20.10;30.20;;;;;;5014262;28;20044;-61
2023/12/03 10:44:38;;;;;;;10.68;7.55;;;20.10;30.30;;;;;;5031639;28;20037;-58
2023/12/03 10:47:04;;;;;;;14.70;8.52;;;20.20;30.50;;;;;;5029818;28;20060;-58
2023/12/03 10:49:32;;;;;;;14.57;9.15;;;20.20;30.90;;;;;;5035119;28;20032;-62
2023/12/03 10:51:59;;;;;;;16.25;9.57;;;20.20;31.50;;;;;;5019097;28;20083;-65
2023/12/03 10:54:26;;;;;;;16.95;9.75;;;20.20;32.30;;;;;;5036531;28;20045;-60
2023/12/03 10:56:54;;;;;;;19.13;9.98;;;20.30;33.60;;;;;;5018895;28;20071;-56
2023/12/03 10:59:27;;;;;;;15.95;9.13;;;20.30;34.70;;;;;;5037025;28;20463;-56
2023/12/03 11:01:58;;;;;;;12.65;7.18;;;20.30;35.20;;;;;;5036596;28;20405;-58
2023/12/03 11:04:52;;;;;;;10.73;7.00;;;20.30;35.30;;;;;;5036826;28;20025;-59
2023/12/03 11:07:22;;;;;;;12.65;6.78;;;20.40;35.10;;;;;;5034641;28;20029;-59
2023/12/03 11:09:49;;;;;;;9.90;5.40;;;20.40;34.80;;;;;;5019566;28;20079;-60
2023/12/03 11:12:17;;;;;;;8.95;5.38;;;20.40;34.40;;;;;;5019001;28;20025;-59
2023/12/03 11:14:44;;;;;;;7.97;5.70;;;20.40;34.20;;;;;;5036465;28;20053;-60
2023/12/03 11:17:22;;;;;;;14.55;6.60;;;20.40;34.40;;;;;;5035613;28;20492;-57
2023/12/03 11:19:51;;;;;;;12.13;7.72;;;20.40;35.00;;;;;;5018939;28;20029;-51
2023/12/03 11:22:52;;;;;;;14.02;8.35;;;20.40;35.90;;;;;;5036395;28;20029;-58
2023/12/03 11:25:24;;;;;;;14.55;8.25;;;20.50;37.10;;;;;;5036518;28;20052;-58
2023/12/03 11:27:52;;;;;;;15.95;7.80;;;20.50;38.30;;;;;;5018614;28;20151;-57
2023/12/03 11:30:35;;;;;;;10.88;6.97;;;20.50;38.30;;;;;;5018716;28;20110;-57
2023/12/03 11:33:01;;;;;;;11.40;6.55;;;20.60;38.90;;;;;;5035921;28;20036;-56
2023/12/03 11:35:28;;;;;;;13.10;7.40;;;20.60;38.90;;;;;;5035506;28;20025;-61
2023/12/03 11:37:53;;;;;;;12.63;7.18;;;20.60;38.80;;;;;;5018191;28;20052;-60
2023/12/03 11:40:33;;;;;;;9.93;5.82;;;20.60;38.70;;;;;;5035409;28;20030;-59
2023/12/03 11:42:59;;;;;;;8.50;5.65;;;20.60;38.60;;;;;;5035883;28;21315;-61
2023/12/03 11:45:27;;;;;;;7.90;5.15;;;20.60;38.20;;;;;;5017793;28;20108;-59
2023/12/03 11:48:11;;;;;;;8.43;5.10;;;20.60;37.70;;;;;;5035993;28;20064;-59
2023/12/03 11:50:39;;;;;;;7.90;5.40;;;20.60;37.00;;;;;;5035822;28;20040;-57
2023/12/03 11:53:09;;;;;;;8.15;4.20;;;20.60;36.70;;;;;;5035375;28;20039;-57
2023/12/03 11:55:37;;;;;;;7.15;4.30;;;20.60;36.20;;;;;;5034898;28;20025;-57
2023/12/03 11:58:04;;;;;;;5.68;4.10;;;20.60;35.90;;;;;;5035543;28;20060;-60
2023/12/03 12:00:31;;;;;;;5.45;3.65;;;20.60;35.50;;;;;;5034493;28;20052;-60
2023/12/03 12:02:57;;;;;;;5.50;3.50;;;20.60;35.20;;;;;;5036043;28;20037;-59
2023/12/03 12:05:23;;;;;;;6.75;3.50;;;20.60;34.90;;;;;;5035617;28;20313;-61
2023/12/03 12:08:02;;;;;;;6.03;3.58;;;20.60;34.70;;;;;;5017514;28;20480;-57
2023/12/03 12:10:30;;;;;;;4.68;3.53;;;20.60;34.30;;;;;;5035527;28;20120;-57
2023/12/03 12:12:59;;;;;;;4.78;3.28;;;20.50;34.10;;;;;;5035336;28;20057;-58
2023/12/03 12:15:26;;;;;;;5.40;3.50;;;20.50;34.50;;;;;;5001663;28;20528;-60
2023/12/03 12:17:52;;;;;;;3.70;2.78;;;20.50;33.60;;;;;;5035350;28;20017;-60
2023/12/03 12:20:25;;;;;;;5.72;3.25;;;20.50;33.40;;;;;;4999038;28;20393;-56
2023/12/03 12:22:52;;;;;;;5.20;3.08;;;20.50;33.30;;;;;;5031474;28;20369;-60
2023/12/03 12:25:20;;;;;;;4.97;2.80;;;20.50;33.20;;;;;;5016964;28;20326;-59
2023/12/03 12:27:47;;;;;;;4.60;3.05;;;20.50;33.20;;;;;;5028907;28;20109;-59
2023/12/03 12:30:15;;;;;;;3.15;2.45;;;20.50;33.20;;;;;;5034816;28;20115;-58
2023/12/03 12:32:41;;;;;;;3.88;2.72;;;20.50;33.10;;;;;;5032495;28;20029;-60
2023/12/03 12:35:08;;;;;;;4.57;2.80;;;20.50;33.00;;;;;;5032724;28;20021;-59
2023/12/03 12:37:34;;;;;;;4.03;2.80;;;20.50;32.70;;;;;;5017119;28;20407;-59
2023/12/03 12:40:08;;;;;;;5.43;2.92;;;20.50;32.60;;;;;;5017180;28;20032;-57
2023/12/03 12:42:34;;;;;;;3.15;2.38;;;20.50;32.40;;;;;;5034626;28;20369;-60